Terminal Aerodrome Forecast
Issued by NWS Shreveport, LA

Home | Current Version | Previous Version | Text Only | Print | Product List | Glossary On
Versions: 1 2 3 4 5 6 7 8 9 10 11 12 13 14 15 16 17
472
FTUS44 KSHV 310548
TAFGGG
TAF
KGGG 310548Z 3106/0106 19006KT P6SM SCT040 SCT250
      TEMPO 3110/3113 5SM BR BKN009
     FM311700 18007KT P6SM SCT030 SCT150 SCT250=

USA.gov is the U.S. government's official web portal to all federal, state and local government web resources and services.